Time;durP1;ratioP1;P1;durP2;ratioP2;P2;SDS_P1;SDS_P2;PMS_P1;PMS_P2;Temp;Humidity;BMP_temperature;BMP_pressure;BME280_temperature;BME280_humidity;BME280_pressure;Samples;Min_cycle;Max_cycle;Signal;HPM_P1;HPM_P2
2021/11/23 00:01:20;;;;;;;;;;;11.10;99.90;;;;;;5013307;28;19920;-75
2021/11/23 00:03:46;;;;;;;;;;;11.10;99.90;;;;;;5005797;28;19917;-76
2021/11/23 00:06:12;;;;;;;;;;;11.10;99.90;;;;;;5024986;28;20341;-76
2021/11/23 00:08:38;;;;;;;;;;;11.10;99.90;;;;;;5006365;28;20260;-75
2021/11/23 00:11:03;;;;;;;;;;;11.10;99.90;;;;;;5003884;28;19961;-77
2021/11/23 00:13:29;;;;;;;;;;;11.10;99.90;;;;;;5010180;28;19922;-76
2021/11/23 00:15:55;;;;;;;;;;;11.10;99.90;;;;;;5013300;28;19909;-78
2021/11/23 00:18:20;;;;;;;;;;;11.00;99.90;;;;;;5004540;28;19914;-76
2021/11/23 00:20:47;;;;;;;;;;;11.00;99.90;;;;;;5009964;28;19909;-77
2021/11/23 00:23:13;;;;;;;;;;;11.00;99.90;;;;;;5012446;28;19918;-77
2021/11/23 00:25:39;;;;;;;;;;;11.00;99.90;;;;;;5012614;28;20049;-75
2021/11/23 00:28:04;;;;;;;;;;;11.00;99.90;;;;;;5012211;28;20235;-76
2021/11/23 00:30:30;;;;;;;;;;;11.00;99.90;;;;;;5012181;28;19914;-75
2021/11/23 00:32:56;;;;;;;;;;;11.00;99.90;;;;;;5003994;28;19914;-76
2021/11/23 00:35:22;;;;;;;;;;;11.00;99.90;;;;;;5010291;28;20004;-76
2021/11/23 00:37:49;;;;;;;;;;;10.90;99.90;;;;;;5011142;28;19928;-76
2021/11/23 00:40:18;;;;;;;;;;;10.90;99.90;;;;;;5002591;28;20024;-78
2021/11/23 00:42:43;;;;;;;;;;;10.90;99.90;;;;;;5012410;28;20008;-76
2021/11/23 00:45:10;;;;;;;;;;;10.90;99.90;;;;;;5027133;28;20223;-76
2021/11/23 00:47:36;;;;;;;;;;;10.80;99.90;;;;;;5011150;28;19978;-76
2021/11/23 00:50:02;;;;;;;;;;;10.80;99.90;;;;;;5006171;28;19997;-77
2021/11/23 00:52:27;;;;;;;;;;;10.70;99.90;;;;;;5004315;28;19909;-75
2021/11/23 00:54:53;;;;;;;;;;;10.70;99.90;;;;;;5011536;28;19920;-76
2021/11/23 00:57:18;;;;;;;;;;;10.70;99.90;;;;;;5003961;28;19964;-76
2021/11/23 00:59:44;;;;;;;;;;;10.60;99.90;;;;;;5011831;28;19914;-76
2021/11/23 01:02:11;;;;;;;;;;;10.60;99.90;;;;;;5009725;28;19917;-76
2021/11/23 01:04:37;;;;;;;;;;;10.60;99.90;;;;;;5006498;28;19917;-77
2021/11/23 01:07:03;;;;;;;;;;;10.60;99.90;;;;;;5007808;28;19968;-76
2021/11/23 01:09:29;;;;;;;;;;;10.50;99.90;;;;;;5011324;28;20380;-77
2021/11/23 01:11:55;;;;;;;;;;;10.50;99.90;;;;;;5008818;28;19921;-77
2021/11/23 01:14:21;;;;;;;;;;;10.50;99.90;;;;;;5009386;28;20056;-76
2021/11/23 01:16:47;;;;;;;;;;;10.50;99.90;;;;;;5009340;28;19913;-77
2021/11/23 01:19:14;;;;;;;;;;;10.50;99.90;;;;;;5010703;28;19976;-76
2021/11/23 01:21:39;;;;;;;;;;;10.50;99.90;;;;;;5001631;28;19917;-76
2021/11/23 01:24:05;;;;;;;;;;;10.50;99.90;;;;;;5011792;28;19917;-76
2021/11/23 01:26:31;;;;;;;;;;;10.50;99.90;;;;;;5010713;28;19967;-77
2021/11/23 01:28:56;;;;;;;;;;;10.40;99.90;;;;;;5006583;28;19913;-75
2021/11/23 01:31:22;;;;;;;;;;;10.50;99.90;;;;;;5016249;28;19933;-76
2021/11/23 01:33:48;;;;;;;;;;;10.50;99.90;;;;;;5022695;28;19956;-75
2021/11/23 01:36:13;;;;;;;;;;;10.50;99.90;;;;;;5022612;28;19913;-76
2021/11/23 01:38:42;;;;;;;;;;;10.60;99.90;;;;;;5016539;28;20181;-77
2021/11/23 01:41:08;;;;;;;;;;;10.50;99.90;;;;;;5011151;28;19920;-77
2021/11/23 01:43:34;;;;;;;;;;;10.60;99.90;;;;;;5005503;28;19988;-75
2021/11/23 01:46:00;;;;;;;;;;;10.60;99.90;;;;;;5002357;28;19918;-75
2021/11/23 01:48:26;;;;;;;;;;;10.70;99.90;;;;;;5010752;28;20288;-76
2021/11/23 01:50:52;;;;;;;;;;;10.70;99.90;;;;;;5011399;28;19952;-76
2021/11/23 01:53:17;;;;;;;;;;;10.70;99.90;;;;;;5000716;28;19957;-77
2021/11/23 01:55:43;;;;;;;;;;;10.70;99.90;;;;;;5005888;28;19909;-75
2021/11/23 01:58:10;;;;;;;;;;;10.70;99.90;;;;;;5009980;28;19913;-77
2021/11/23 02:00:36;;;;;;;;;;;10.60;99.90;;;;;;5008302;28;19921;-76
2021/11/23 02:03:01;;;;;;;;;;;10.70;99.90;;;;;;5006942;28;19914;-75
2021/11/23 02:05:27;;;;;;;;;;;10.60;99.90;;;;;;5007103;28;19920;-76
2021/11/23 02:07:53;;;;;;;;;;;10.70;99.90;;;;;;5008699;28;19913;-76
2021/11/23 02:10:18;;;;;;;;;;;10.60;99.90;;;;;;5006912;28;19913;-76
2021/11/23 02:12:44;;;;;;;;;;;10.60;99.90;;;;;;5004872;28;19936;-76
2021/11/23 02:15:10;;;;;;;;;;;10.60;99.90;;;;;;5007843;28;19917;-75
2021/11/23 02:17:36;;;;;;;;;;;10.60;99.90;;;;;;5005616;28;20589;-77
2021/11/23 02:20:03;;;;;;;;;;;10.60;99.90;;;;;;5007081;28;19914;-76
2021/11/23 02:22:29;;;;;;;;;;;10.60;99.90;;;;;;5009520;28;20009;-76
2021/11/23 02:24:54;;;;;;;;;;;10.60;99.90;;;;;;5010069;28;21162;-77
2021/11/23 02:27:21;;;;;;;;;;;10.60;99.90;;;;;;5010115;28;19922;-76
2021/11/23 02:29:46;;;;;;;;;;;10.60;99.90;;;;;;5007752;28;19917;-76
2021/11/23 02:32:12;;;;;;;;;;;10.60;99.90;;;;;;5010326;28;20000;-76
2021/11/23 02:34:38;;;;;;;;;;;10.60;99.90;;;;;;5007190;28;19913;-77
2021/11/23 02:37:03;;;;;;;;;;;10.60;99.90;;;;;;5009650;28;20359;-76
2021/11/23 02:39:29;;;;;;;;;;;10.60;99.90;;;;;;5007045;28;19913;-77
2021/11/23 02:41:55;;;;;;;;;;;10.60;99.90;;;;;;5008842;28;19913;-76
2021/11/23 02:44:21;;;;;;;;;;;10.60;99.90;;;;;;5010707;28;19963;-75
2021/11/23 02:46:47;;;;;;;;;;;10.70;99.90;;;;;;5009923;28;19917;-75
2021/11/23 02:49:13;;;;;;;;;;;10.70;99.90;;;;;;5019972;28;19962;-75
2021/11/23 02:51:40;;;;;;;;;;;10.70;99.90;;;;;;5006158;28;19967;-75
2021/11/23 02:54:06;;;;;;;;;;;10.70;99.90;;;;;;5010683;28;19918;-79
2021/11/23 02:56:31;;;;;;;;;;;10.70;99.90;;;;;;5008862;28;19914;-78
2021/11/23 02:58:57;;;;;;;;;;;10.70;99.90;;;;;;5000937;28;19953;-76
2021/11/23 03:01:24;;;;;;;;;;;10.70;99.90;;;;;;5003993;28;19914;-76
2021/11/23 03:03:51;;;;;;;;;;;10.80;99.90;;;;;;5008100;28;19930;-76
2021/11/23 03:06:17;;;;;;;;;;;10.80;99.90;;;;;;5005707;28;19914;-75
2021/11/23 03:08:44;;;;;;;;;;;10.80;99.90;;;;;;5007430;28;19920;-76
2021/11/23 03:11:10;;;;;;;;;;;10.80;99.90;;;;;;5000136;28;19949;-77
2021/11/23 03:13:35;;;;;;;;;;;10.80;99.90;;;;;;5004109;28;19917;-76
2021/11/23 03:16:01;;;;;;;;;;;10.80;99.90;;;;;;5007571;28;19913;-77
2021/11/23 03:18:27;;;;;;;;;;;10.80;99.90;;;;;;5010792;28;19913;-77
2021/11/23 03:20:52;;;;;;;;;;;10.90;99.90;;;;;;5008389;28;19924;-76
2021/11/23 03:23:18;;;;;;;;;;;10.90;99.90;;;;;;5009577;28;19929;-77
2021/11/23 03:25:44;;;;;;;;;;;10.90;99.90;;;;;;5008189;28;19921;-77
2021/11/23 03:28:10;;;;;;;;;;;10.90;99.90;;;;;;5014719;28;19917;-76
2021/11/23 03:30:36;;;;;;;;;;;10.90;99.90;;;;;;5018822;28;19914;-77
2021/11/23 03:33:02;;;;;;;;;;;10.80;99.90;;;;;;5013280;28;20031;-76
2021/11/23 03:35:30;;;;;;;;;;;10.80;99.90;;;;;;5014275;28;19932;-74
2021/11/23 03:37:56;;;;;;;;;;;10.80;99.90;;;;;;5014240;28;19975;-76
2021/11/23 03:40:22;;;;;;;;;;;10.80;99.90;;;;;;5017206;28;19916;-75
2021/11/23 03:42:48;;;;;;;;;;;10.80;99.90;;;;;;5009687;28;19925;-76
2021/11/23 03:45:14;;;;;;;;;;;10.70;99.90;;;;;;5009675;28;20048;-77
2021/11/23 03:47:40;;;;;;;;;;;10.70;99.90;;;;;;5008479;28;19937;-76
2021/11/23 03:50:07;;;;;;;;;;;10.70;99.90;;;;;;5009490;28;19914;-75
2021/11/23 03:52:32;;;;;;;;;;;10.70;99.90;;;;;;5011110;28;19967;-75
2021/11/23 03:54:58;;;;;;;;;;;10.60;99.90;;;;;;5009656;28;19922;-76
2021/11/23 03:57:24;;;;;;;;;;;10.70;99.90;;;;;;5013937;28;19914;-77
2021/11/23 03:59:49;;;;;;;;;;;10.60;99.90;;;;;;5027761;28;19917;-76
2021/11/23 04:02:20;;;;;;;;;;;10.60;99.90;;;;;;5008068;28;20538;-75
2021/11/23 04:04:47;;;;;;;;;;;10.60;99.90;;;;;;5011516;28;20016;-77
2021/11/23 04:07:12;;;;;;;;;;;10.70;99.90;;;;;;5005456;28;19918;-76
2021/11/23 04:09:38;;;;;;;;;;;10.60;99.90;;;;;;5012940;28;19920;-76
2021/11/23 04:12:04;;;;;;;;;;;10.70;99.90;;;;;;5011049;28;19928;-75
2021/11/23 04:14:30;;;;;;;;;;;10.70;99.90;;;;;;5009108;28;20346;-76
2021/11/23 04:16:55;;;;;;;;;;;10.60;99.90;;;;;;5008037;28;19921;-76
2021/11/23 04:19:21;;;;;;;;;;;10.60;99.90;;;;;;5011323;28;20375;-75
2021/11/23 04:21:46;;;;;;;;;;;10.50;99.90;;;;;;5011415;28;19955;-76
2021/11/23 04:24:12;;;;;;;;;;;10.50;99.90;;;;;;5012547;28;20355;-76
2021/11/23 04:26:38;;;;;;;;;;;10.50;99.90;;;;;;5026762;28;19946;-77
2021/11/23 04:29:03;;;;;;;;;;;10.40;99.90;;;;;;5016298;28;19964;-76
2021/11/23 04:31:29;;;;;;;;;;;10.40;99.90;;;;;;5015778;28;19936;-76
2021/11/23 04:33:55;;;;;;;;;;;10.40;99.90;;;;;;5011117;28;19944;-75
2021/11/23 04:36:21;;;;;;;;;;;10.50;99.90;;;;;;5010021;28;19952;-77
2021/11/23 04:38:46;;;;;;;;;;;10.50;99.90;;;;;;5010335;28;19914;-76
2021/11/23 04:41:12;;;;;;;;;;;10.40;99.90;;;;;;5010814;28;19979;-76
2021/11/23 04:43:37;;;;;;;;;;;10.40;99.90;;;;;;5003323;28;19917;-77
2021/11/23 04:46:03;;;;;;;;;;;10.40;99.90;;;;;;5018481;28;19917;-75
2021/11/23 04:48:29;;;;;;;;;;;10.50;99.90;;;;;;5037174;28;19971;-77
2021/11/23 04:50:55;;;;;;;;;;;10.50;99.90;;;;;;5023276;28;19918;-77
2021/11/23 04:53:22;;;;;;;;;;;10.40;99.90;;;;;;5024300;28;19914;-76
2021/11/23 04:55:48;;;;;;;;;;;10.40;99.90;;;;;;5013597;28;19917;-74
2021/11/23 04:58:14;;;;;;;;;;;10.40;99.90;;;;;;5013112;28;20044;-75
2021/11/23 05:00:39;;;;;;;;;;;10.40;99.90;;;;;;5007343;28;20024;-76
2021/11/23 05:03:05;;;;;;;;;;;10.40;99.90;;;;;;5009060;28;19921;-77
2021/11/23 05:05:30;;;;;;;;;;;10.40;99.90;;;;;;5014879;28;19917;-76
2021/11/23 05:07:56;;;;;;;;;;;10.40;99.90;;;;;;5013968;28;19976;-77
2021/11/23 05:10:22;;;;;;;;;;;10.40;99.90;;;;;;5009889;28;19917;-77
2021/11/23 05:12:48;;;;;;;;;;;10.40;99.90;;;;;;5008827;28;19924;-75
2021/11/23 05:15:14;;;;;;;;;;;10.30;99.90;;;;;;5015474;28;20009;-77
2021/11/23 05:17:39;;;;;;;;;;;10.30;99.90;;;;;;5012995;28;19921;-76
2021/11/23 05:20:06;;;;;;;;;;;10.30;99.90;;;;;;5019624;28;20417;-76
2021/11/23 05:22:31;;;;;;;;;;;10.30;99.90;;;;;;5018635;28;19913;-78
2021/11/23 05:24:57;;;;;;;;;;;10.30;99.90;;;;;;5020594;28;19918;-77
2021/11/23 05:27:23;;;;;;;;;;;10.30;99.90;;;;;;5012111;28;19914;-75
2021/11/23 05:29:48;;;;;;;;;;;10.30;99.90;;;;;;5012723;28;19945;-76
2021/11/23 05:32:14;;;;;;;;;;;10.20;99.90;;;;;;5011597;28;19921;-77
2021/11/23 05:34:39;;;;;;;;;;;10.30;99.90;;;;;;5013685;28;20048;-77
2021/11/23 05:37:05;;;;;;;;;;;10.30;99.90;;;;;;5010463;28;19914;-77
2021/11/23 05:39:31;;;;;;;;;;;10.20;99.90;;;;;;5014071;28;19929;-76
2021/11/23 05:41:56;;;;;;;;;;;10.20;99.90;;;;;;5013733;28;19949;-76
2021/11/23 05:44:22;;;;;;;;;;;10.20;99.90;;;;;;5011673;28;19927;-77
2021/11/23 05:46:47;;;;;;;;;;;10.20;99.90;;;;;;5011628;28;20072;-76
2021/11/23 05:49:15;;;;;;;;;;;10.20;99.90;;;;;;5011556;28;20328;-76
2021/11/23 05:51:41;;;;;;;;;;;10.10;99.90;;;;;;5020381;28;19922;-76
2021/11/23 05:54:06;;;;;;;;;;;10.10;99.90;;;;;;5016001;28;19922;-78
2021/11/23 05:56:32;;;;;;;;;;;10.10;99.90;;;;;;5014892;28;20000;-77
2021/11/23 05:58:58;;;;;;;;;;;10.10;99.90;;;;;;5015948;28;19913;-75
2021/11/23 06:01:23;;;;;;;;;;;10.10;99.90;;;;;;5013941;28;20256;-76
2021/11/23 06:03:49;;;;;;;;;;;10.10;99.90;;;;;;5014890;28;19952;-77
2021/11/23 06:06:15;;;;;;;;;;;10.10;99.90;;;;;;5013610;28;19961;-76
2021/11/23 06:08:41;;;;;;;;;;;10.10;99.90;;;;;;5011791;28;20009;-77
2021/11/23 06:11:07;;;;;;;;;;;10.10;99.90;;;;;;5015151;28;20382;-77
2021/11/23 06:13:33;;;;;;;;;;;10.00;99.90;;;;;;5014556;28;19917;-77
2021/11/23 06:15:58;;;;;;;;;;;10.00;99.90;;;;;;5012771;28;19920;-77
2021/11/23 06:18:24;;;;;;;;;;;10.00;99.90;;;;;;5017426;28;19913;-78
2021/11/23 06:20:51;;;;;;;;;;;10.00;99.90;;;;;;5016665;28;20012;-79
2021/11/23 06:23:18;;;;;;;;;;;10.00;99.90;;;;;;5014528;28;19913;-76
2021/11/23 06:25:44;;;;;;;;;;;10.00;99.90;;;;;;5011557;28;19914;-77
2021/11/23 06:28:14;;;;;;;;;;;10.10;99.90;;;;;;5013483;28;20284;-77
2021/11/23 06:30:40;;;;;;;;;;;10.00;99.90;;;;;;5008701;28;20449;-78
2021/11/23 06:33:06;;;;;;;;;;;10.00;99.90;;;;;;5013894;28;20015;-77
2021/11/23 06:35:32;;;;;;;;;;;10.00;99.90;;;;;;5018426;28;19914;-77
2021/11/23 06:37:58;;;;;;;;;;;10.00;99.90;;;;;;5017428;28;19914;-77
2021/11/23 06:40:23;;;;;;;;;;;10.00;99.90;;;;;;5020109;28;19959;-77
2021/11/23 06:42:49;;;;;;;;;;;10.10;99.90;;;;;;5017196;28;20453;-78
2021/11/23 06:45:15;;;;;;;;;;;10.10;99.90;;;;;;5024420;28;20012;-78
2021/11/23 06:48:01;;;;;;;;;;;10.00;99.90;;;;;;5018346;28;19913;-78
2021/11/23 06:50:32;;;;;;;;;;;10.10;99.90;;;;;;5030232;28;19913;-80
2021/11/23 06:53:02;;;;;;;;;;;10.10;99.90;;;;;;5013948;28;19913;-78
2021/11/23 06:55:28;;;;;;;;;;;10.20;99.90;;;;;;5019041;28;20012;-77
2021/11/23 06:57:54;;;;;;;;;;;10.20;99.90;;;;;;5017251;28;20025;-75
2021/11/23 07:00:19;;;;;;;;;;;10.20;99.90;;;;;;5016896;28;19968;-79
2021/11/23 07:02:45;;;;;;;;;;;10.20;99.90;;;;;;5013622;28;19930;-78
2021/11/23 07:05:11;;;;;;;;;;;10.20;99.90;;;;;;5006616;28;19917;-78
2021/11/23 07:07:37;;;;;;;;;;;10.20;99.90;;;;;;5013470;28;19913;-78
2021/11/23 07:10:06;;;;;;;;;;;10.30;99.90;;;;;;5018437;28;19918;-77
2021/11/23 07:12:32;;;;;;;;;;;10.30;99.90;;;;;;5003564;28;19940;-77
2021/11/23 07:14:58;;;;;;;;;;;10.30;99.90;;;;;;5011553;28;20371;-76
2021/11/23 07:17:24;;;;;;;;;;;10.30;99.90;;;;;;5014227;28;19941;-77
2021/11/23 07:19:49;;;;;;;;;;;10.40;99.90;;;;;;5014297;28;20617;-80
2021/11/23 07:22:16;;;;;;;;;;;10.40;99.90;;;;;;5011282;28;19917;-78
2021/11/23 07:24:41;;;;;;;;;;;10.40;99.90;;;;;;5017823;28;19960;-77
2021/11/23 07:27:07;;;;;;;;;;;10.40;99.90;;;;;;5015750;28;20375;-77
2021/11/23 07:29:32;;;;;;;;;;;10.40;99.90;;;;;;5012643;28;20383;-76
2021/11/23 07:31:58;;;;;;;;;;;10.50;99.90;;;;;;5014488;28;20308;-76
2021/11/23 07:34:24;;;;;;;;;;;10.50;99.90;;;;;;5014071;28;19921;-78
2021/11/23 07:36:49;;;;;;;;;;;10.40;99.90;;;;;;5011498;28;19939;-77
2021/11/23 07:39:15;;;;;;;;;;;10.40;99.90;;;;;;5010499;28;20477;-76
2021/11/23 07:41:40;;;;;;;;;;;10.40;99.90;;;;;;5007291;28;19972;-76
2021/11/23 07:44:07;;;;;;;;;;;10.40;99.90;;;;;;5005108;28;20597;-78
2021/11/23 07:46:33;;;;;;;;;;;10.50;99.90;;;;;;5010105;28;19914;-77
2021/11/23 07:48:59;;;;;;;;;;;10.50;99.90;;;;;;5012653;28;20463;-76
2021/11/23 07:51:24;;;;;;;;;;;10.60;99.90;;;;;;5012074;28;19979;-77
2021/11/23 07:53:51;;;;;;;;;;;10.50;99.90;;;;;;5017492;28;19914;-76
2021/11/23 07:56:17;;;;;;;;;;;10.50;99.90;;;;;;5018085;28;20053;-76
2021/11/23 07:58:43;;;;;;;;;;;10.50;99.90;;;;;;5019858;28;20367;-77
2021/11/23 08:01:08;;;;;;;;;;;10.60;99.90;;;;;;5019694;28;20282;-76
2021/11/23 08:03:34;;;;;;;;;;;10.60;99.90;;;;;;5017253;28;19929;-78
2021/11/23 08:05:59;;;;;;;;;;;10.60;99.90;;;;;;5015776;28;20001;-77
2021/11/23 08:08:25;;;;;;;;;;;10.60;99.90;;;;;;5017101;28;20232;-77
2021/11/23 08:10:51;;;;;;;;;;;10.60;99.90;;;;;;5020990;28;19917;-77
2021/11/23 08:13:16;;;;;;;;;;;10.70;99.90;;;;;;5016814;28;19918;-77
2021/11/23 08:15:43;;;;;;;;;;;10.70;99.90;;;;;;5023192;28;20311;-77
2021/11/23 08:18:09;;;;;;;;;;;10.60;99.90;;;;;;5033641;28;19923;-76
2021/11/23 08:20:35;;;;;;;;;;;10.60;99.90;;;;;;5016215;28;19977;-76
2021/11/23 08:23:00;;;;;;;;;;;10.70;99.90;;;;;;5019247;28;19939;-77
2021/11/23 08:25:26;;;;;;;;;;;10.70;99.90;;;;;;5017478;28;20363;-77
2021/11/23 08:27:54;;;;;;;;;;;10.70;99.90;;;;;;5020573;28;19949;-78
2021/11/23 08:30:20;;;;;;;;;;;10.70;99.90;;;;;;5012682;28;19988;-77
2021/11/23 08:32:45;;;;;;;;;;;10.70;99.90;;;;;;5012285;28;19914;-77
2021/11/23 08:35:11;;;;;;;;;;;10.70;99.90;;;;;;5016568;28;20359;-78
2021/11/23 08:37:37;;;;;;;;;;;10.70;99.90;;;;;;5014535;28;19924;-79
2021/11/23 08:40:03;;;;;;;;;;;10.80;99.90;;;;;;5014942;28;19922;-78
2021/11/23 08:42:29;;;;;;;;;;;10.80;99.90;;;;;;5011948;28;19949;-77
2021/11/23 08:44:55;;;;;;;;;;;10.80;99.90;;;;;;5011197;28;19925;-76
2021/11/23 08:47:21;;;;;;;;;;;10.80;99.90;;;;;;5011322;28;19964;-77
2021/11/23 08:49:48;;;;;;;;;;;10.80;99.90;;;;;;5009104;28;20359;-77
2021/11/23 08:52:14;;;;;;;;;;;10.80;99.90;;;;;;5009868;28;19920;-77
2021/11/23 08:54:40;;;;;;;;;;;10.80;99.90;;;;;;5010546;28;19925;-76
2021/11/23 08:57:08;;;;;;;;;;;11.00;99.90;;;;;;5018241;28;20614;-77
2021/11/23 08:59:37;;;;;;;;;;;11.10;99.90;;;;;;5010888;28;21476;-77
2021/11/23 09:02:03;;;;;;;;;;;11.20;99.90;;;;;;5004097;28;19914;-68
2021/11/23 09:04:29;;;;;;;;;;;11.20;99.90;;;;;;5002161;28;19918;-69
2021/11/23 09:06:56;;;;;;;;;;;11.10;99.90;;;;;;5007692;28;19976;-69
2021/11/23 09:09:27;;;;;;;;;;;11.20;99.90;;;;;;5008006;28;19913;-68
2021/11/23 09:11:53;;;;;;;;;;;11.10;99.90;;;;;;5004192;28;19921;-67
2021/11/23 09:14:20;;;;;;;;;;;11.20;99.90;;;;;;5010106;28;19914;-68
2021/11/23 09:16:45;;;;;;;;;;;11.10;99.90;;;;;;5006992;28;20302;-68
2021/11/23 09:19:11;;;;;;;;;;;11.20;99.90;;;;;;5003079;28;20008;-66
2021/11/23 09:21:37;;;;;;;;;;;11.30;99.90;;;;;;5008548;28;19943;-67
2021/11/23 09:24:03;;;;;;;;;;;11.30;99.90;;;;;;5004778;28;20020;-69
2021/11/23 09:26:28;;;;;;;;;;;11.40;99.90;;;;;;5001477;28;20012;-67
2021/11/23 09:28:54;;;;;;;;;;;11.30;99.90;;;;;;4998184;28;19913;-67
2021/11/23 09:31:20;;;;;;;;;;;11.40;99.90;;;;;;5010426;28;19921;-67
2021/11/23 09:33:46;;;;;;;;;;;11.40;99.90;;;;;;5010052;28;19914;-66
2021/11/23 09:36:12;;;;;;;;;;;11.50;99.90;;;;;;5001136;28;20279;-69
2021/11/23 09:38:41;;;;;;;;;;;11.50;99.90;;;;;;5006654;28;19920;-68
2021/11/23 09:41:07;;;;;;;;;;;11.60;99.90;;;;;;5011502;28;19921;-69
2021/11/23 09:43:34;;;;;;;;;;;11.50;99.90;;;;;;5003948;28;19969;-69
2021/11/23 09:46:08;;;;;;;;;;;11.60;99.90;;;;;;5010378;28;19921;-69
2021/11/23 09:48:34;;;;;;;;;;;11.70;99.90;;;;;;5010167;28;19913;-68
2021/11/23 09:51:04;;;;;;;;;;;11.80;99.90;;;;;;5008225;28;20357;-68
2021/11/23 09:53:29;;;;;;;;;;;11.80;99.90;;;;;;4999917;28;19913;-68
2021/11/23 09:56:01;;;;;;;;;;;11.80;99.90;;;;;;4999466;28;19927;-67
2021/11/23 09:58:29;;;;;;;;;;;11.70;99.90;;;;;;5002286;28;19917;-67
2021/11/23 10:01:00;;;;;;;;;;;11.80;99.90;;;;;;5004760;28;19922;-67
2021/11/23 10:03:27;;;;;;;;;;;11.70;99.90;;;;;;4999468;28;20026;-68
2021/11/23 10:06:03;;;;;;;;;;;11.70;99.90;;;;;;4992563;28;19909;-68
2021/11/23 10:08:29;;;;;;;;;;;11.70;99.90;;;;;;4992352;28;19919;-68
2021/11/23 10:10:54;;;;;;;;;;;11.60;99.90;;;;;;4996079;28;20413;-68
2021/11/23 10:13:21;;;;;;;;;;;11.70;99.90;;;;;;5004263;28;19929;-68
2021/11/23 10:15:47;;;;;;;;;;;11.70;99.90;;;;;;5010514;28;20272;-69
2021/11/23 10:18:13;;;;;;;;;;;11.70;99.90;;;;;;5011352;28;19952;-68
2021/11/23 10:20:41;;;;;;;;;;;11.60;99.90;;;;;;5011052;28;19949;-71
2021/11/23 10:23:20;;;;;;;;;;;11.70;99.90;;;;;;4994097;28;19964;-70
2021/11/23 10:25:47;;;;;;;;;;;11.70;99.90;;;;;;5004542;28;20344;-70
2021/11/23 10:28:15;;;;;;;;;;;11.80;99.90;;;;;;5009490;28;19925;-71
2021/11/23 10:30:44;;;;;;;;;;;11.80;99.90;;;;;;5011265;28;20233;-72
2021/11/23 10:33:10;;;;;;;;;;;11.80;99.90;;;;;;5009310;28;19917;-71
2021/11/23 10:35:45;;;;;;;;;;;11.60;99.90;;;;;;5011703;28;19959;-73
2021/11/23 10:38:11;;;;;;;;;;;11.70;99.90;;;;;;5011129;28;19960;-72
2021/11/23 10:40:37;;;;;;;;;;;11.80;99.90;;;;;;5009963;28;19913;-72
2021/11/23 10:43:09;;;;;;;;;;;11.90;99.90;;;;;;5009351;28;19913;-72
2021/11/23 10:45:42;;;;;;;;;;;11.90;99.90;;;;;;5011084;28;19982;-72
2021/11/23 10:48:08;;;;;;;;;;;11.90;99.90;;;;;;5010531;28;20235;-71
2021/11/23 10:50:34;;;;;;;;;;;12.10;99.90;;;;;;5001010;28;20427;-73
2021/11/23 10:53:07;;;;;;;;;;;11.90;99.90;;;;;;5011720;28;19924;-69
2021/11/23 10:55:36;;;;;;;;;;;11.80;99.90;;;;;;5013326;28;19944;-70
2021/11/23 10:58:03;;;;;;;;;;;12.00;99.90;;;;;;5009921;28;19921;-71
2021/11/23 11:00:30;;;;;;;;;;;12.00;99.90;;;;;;5007746;28;20330;-69
2021/11/23 11:03:01;;;;;;;;;;;12.00;99.90;;;;;;5011740;28;19914;-69
2021/11/23 11:05:28;;;;;;;;;;;11.80;99.90;;;;;;5011067;28;19913;-68
2021/11/23 11:07:55;;;;;;;;;;;12.00;99.90;;;;;;5009953;28;19910;-69
2021/11/23 11:10:20;;;;;;;;;;;11.90;99.90;;;;;;5011905;28;19921;-69
2021/11/23 11:12:46;;;;;;;;;;;11.90;99.90;;;;;;5011008;28;19917;-70
2021/11/23 11:15:16;;;;;;;;;;;12.00;99.90;;;;;;5012169;28;20338;-68
2021/11/23 11:17:45;;;;;;;;;;;12.10;99.90;;;;;;5010848;28;19929;-69
2021/11/23 11:20:12;;;;;;;;;;;12.10;99.90;;;;;;5002608;28;20383;-70
2021/11/23 11:22:51;;;;;;;;;;;12.00;99.90;;;;;;5003437;28;19949;-70
2021/11/23 11:27:47;;;;;;;;;;;12.00;99.90;;;;;;5000134;28;19914;-69
2021/11/23 11:30:33;;;;;;;;;;;11.90;99.90;;;;;;5010808;28;20016;-70
2021/11/23 11:33:08;;;;;;;;;;;11.80;99.90;;;;;;5011123;28;19917;-68
2021/11/23 11:35:42;;;;;;;;;;;11.80;99.90;;;;;;5010030;28;19918;-71
2021/11/23 11:38:33;;;;;;;;;;;11.90;99.90;;;;;;5008169;28;20328;-71
2021/11/23 11:41:01;;;;;;;;;;;12.00;99.90;;;;;;5001152;28;19968;-69
2021/11/23 11:43:34;;;;;;;;;;;12.10;99.90;;;;;;5011164;28;19913;-70
2021/11/23 11:45:59;;;;;;;;;;;12.10;99.90;;;;;;5005816;28;19925;-71
2021/11/23 11:48:35;;;;;;;;;;;12.00;99.90;;;;;;5001233;28;20405;-70
2021/11/23 11:51:02;;;;;;;;;;;12.00;99.90;;;;;;5011947;28;20449;-71
2021/11/23 11:53:47;;;;;;;;;;;12.10;99.90;;;;;;5011091;28;19925;-71
2021/11/23 11:56:14;;;;;;;;;;;12.20;99.90;;;;;;5005660;28;20004;-69
2021/11/23 11:58:45;;;;;;;;;;;12.30;99.90;;;;;;5009220;28;19914;-71
2021/11/23 12:01:37;;;;;;;;;;;12.30;99.90;;;;;;5005853;28;20355;-69
2021/11/23 12:04:03;;;;;;;;;;;12.30;99.90;;;;;;5010795;28;19917;-69
2021/11/23 12:06:47;;;;;;;;;;;12.10;99.90;;;;;;5014515;28;19913;-69
2021/11/23 12:09:31;;;;;;;;;;;12.10;99.90;;;;;;5012210;28;20425;-69
2021/11/23 12:12:09;;;;;;;;;;;12.10;99.90;;;;;;5012679;28;19975;-69
2021/11/23 12:14:37;;;;;;;;;;;12.10;99.90;;;;;;5013495;28;19918;-70
2021/11/23 12:17:15;;;;;;;;;;;12.20;99.90;;;;;;5009992;28;19944;-71
2021/11/23 12:19:51;;;;;;;;;;;12.40;99.90;;;;;;5012784;28;19997;-70
2021/11/23 12:22:21;;;;;;;;;;;12.40;99.90;;;;;;5001472;28;19940;-71
2021/11/23 12:24:47;;;;;;;;;;;12.30;99.90;;;;;;5011039;28;20212;-69
2021/11/23 12:27:14;;;;;;;;;;;12.30;99.90;;;;;;5014024;28;19910;-69
2021/11/23 12:29:41;;;;;;;;;;;12.30;99.90;;;;;;5010867;28;19917;-69
2021/11/23 12:32:06;;;;;;;;;;;12.30;99.90;;;;;;5012513;28;19967;-70
2021/11/23 12:34:32;;;;;;;;;;;12.30;99.90;;;;;;5012166;28;20008;-70
2021/11/23 12:36:59;;;;;;;;;;;12.30;99.90;;;;;;5007760;28;19921;-70
2021/11/23 12:39:26;;;;;;;;;;;12.30;99.90;;;;;;5005456;28;20302;-69
2021/11/23 12:42:00;;;;;;;;;;;12.20;99.90;;;;;;5011478;28;19958;-69
2021/11/23 12:44:32;;;;;;;;;;;12.20;99.90;;;;;;5007746;28;19917;-70
2021/11/23 12:46:59;;;;;;;;;;;12.10;99.90;;;;;;5010948;28;19918;-71
2021/11/23 12:49:26;;;;;;;;;;;12.10;99.90;;;;;;5006899;28;19926;-70
2021/11/23 12:51:53;;;;;;;;;;;12.20;99.90;;;;;;5004937;28;19957;-70
2021/11/23 12:54:22;;;;;;;;;;;12.20;99.90;;;;;;5011155;28;19921;-70
2021/11/23 12:56:50;;;;;;;;;;;12.30;99.90;;;;;;5013967;28;19910;-71
2021/11/23 12:59:33;;;;;;;;;;;12.30;99.90;;;;;;5008917;28;19917;-70
2021/11/23 13:02:00;;;;;;;;;;;12.30;99.90;;;;;;5010702;28;19936;-69
2021/11/23 13:04:36;;;;;;;;;;;12.30;99.90;;;;;;5008766;28;20000;-70
2021/11/23 13:07:08;;;;;;;;;;;12.20;99.90;;;;;;5012952;28;19910;-69
2021/11/23 13:09:47;;;;;;;;;;;12.30;99.90;;;;;;5010489;28;20375;-70
2021/11/23 13:12:14;;;;;;;;;;;12.30;99.90;;;;;;5012697;28;20052;-71
2021/11/23 13:14:49;;;;;;;;;;;12.20;99.90;;;;;;5011494;28;19936;-71
2021/11/23 13:17:15;;;;;;;;;;;12.20;99.90;;;;;;5007612;28;20331;-70
2021/11/23 13:19:51;;;;;;;;;;;12.10;99.90;;;;;;5011401;28;19999;-71
2021/11/23 13:22:17;;;;;;;;;;;12.10;99.90;;;;;;5008764;28;20421;-70
2021/11/23 13:24:42;;;;;;;;;;;12.10;99.90;;;;;;5019324;28;19944;-70
2021/11/23 13:27:08;;;;;;;;;;;12.00;99.90;;;;;;5013095;28;19917;-71
2021/11/23 13:29:34;;;;;;;;;;;12.00;99.90;;;;;;5010344;28;20062;-69
2021/11/23 13:31:59;;;;;;;;;;;12.00;99.90;;;;;;5009691;28;19943;-70
2021/11/23 13:34:25;;;;;;;;;;;11.90;99.90;;;;;;5010865;28;20382;-71
2021/11/23 13:36:53;;;;;;;;;;;11.80;99.90;;;;;;5005446;28;19920;-70
2021/11/23 13:39:19;;;;;;;;;;;11.90;99.90;;;;;;5009423;28;19940;-71
2021/11/23 13:41:48;;;;;;;;;;;11.90;99.90;;;;;;5010671;28;19921;-70
2021/11/23 13:44:15;;;;;;;;;;;11.90;99.90;;;;;;5001366;28;19917;-70
2021/11/23 13:46:43;;;;;;;;;;;12.00;99.90;;;;;;5018603;28;19960;-70
2021/11/23 13:49:10;;;;;;;;;;;11.90;99.90;;;;;;5008253;28;19914;-72
2021/11/23 13:51:36;;;;;;;;;;;11.90;99.90;;;;;;5026494;28;19914;-69
2021/11/23 13:54:13;;;;;;;;;;;11.90;99.90;;;;;;5010403;28;19921;-70
2021/11/23 13:56:40;;;;;;;;;;;12.00;99.90;;;;;;5010388;28;19916;-70
2021/11/23 13:59:07;;;;;;;;;;;11.90;99.90;;;;;;5009258;28;19917;-69
2021/11/23 14:01:47;;;;;;;;;;;11.90;99.90;;;;;;5011218;28;20290;-70
2021/11/23 14:04:20;;;;;;;;;;;11.80;99.90;;;;;;5004568;28;19971;-70
2021/11/23 14:06:57;;;;;;;;;;;11.90;99.90;;;;;;5008576;28;20411;-69
2021/11/23 14:09:22;;;;;;;;;;;12.00;99.90;;;;;;5020056;28;19913;-70
2021/11/23 14:12:01;;;;;;;;;;;12.00;99.90;;;;;;5008818;28;19920;-70
2021/11/23 14:14:27;;;;;;;;;;;11.90;99.90;;;;;;5011203;28;20005;-70
2021/11/23 14:16:53;;;;;;;;;;;11.90;99.90;;;;;;5009390;28;20628;-70
2021/11/23 14:19:19;;;;;;;;;;;11.90;99.90;;;;;;5010294;28;19917;-71